Terminal Aerodrome Forecast
Issued by NWS

Home | Current Version | Previous Version | Graphics & Text | Print | Product List | Glossary On
Versions: 1 2 3 4 5 6 7 8 9 10 11 12 13 14 15 16 17 18 19 20 21 22
135
FTUS41 KCLE 281130
TAFFDY
TAF
KFDY 281130Z 2812/2912 24003KT 6SM BR SCT200
      TEMPO 2812/2813 3SM BR SCT006 BKN200
     FM281500 24005KT P6SM SCT030 BKN200
     FM281900 26005KT P6SM VCTS SCT040CB BKN120
     FM290000 35005KT P6SM SCT040 BKN120
     FM290700 02004KT 5SM BR SCT040=

USA.gov is the U.S. government's official web portal to all federal, state and local government web resources and services.